Time;durP1;ratioP1;P1;durP2;ratioP2;P2;SDS_P1;SDS_P2;PMS_P1;PMS_P2;Temp;Humidity;BMP_temperature;BMP_pressure;BME280_temperature;BME280_humidity;BME280_pressure;Samples;Min_cycle;Max_cycle;Signal;HPM_P1;HPM_P2
2022/11/25 00:01:33;;;;;;;17.80;7.78;;;;;;;;;;5010318;28;20045;-89
2022/11/25 00:04:02;;;;;;;19.30;7.70;;;;;;;;;;4986330;28;20516;-88
2022/11/25 00:06:34;;;;;;;16.13;7.35;;;;;;;;;;5009517;28;20127;-89
2022/11/25 00:09:08;;;;;;;17.85;7.47;;;;;;;;;;4990738;28;20054;-89
2022/11/25 00:11:41;;;;;;;18.92;7.80;;;;;;;;;;5007873;28;20045;-89
2022/11/25 00:14:18;;;;;;;18.73;7.88;;;;;;;;;;4991134;28;20048;-89
2022/11/25 00:16:46;;;;;;;20.83;8.23;;;;;;;;;;4989828;28;20050;-88
2022/11/25 00:19:40;;;;;;;16.75;7.68;;;;;;;;;;4989400;28;20389;-89
2022/11/25 00:22:07;;;;;;;20.45;8.40;;;;;;;;;;4975424;28;20065;-89
2022/11/25 00:25:24;;;;;;;17.85;7.85;;;;;;;;;;5011391;28;20133;-88
2022/11/25 00:27:52;;;;;;;18.73;7.47;;;;;;;;;;4977508;28;20050;-88
2022/11/25 00:30:20;;;;;;;19.92;8.27;;;;;;;;;;4992287;28;20407;-89
2022/11/25 00:33:12;;;;;;;15.93;7.30;;;;;;;;;;5011485;28;20050;-88
2022/11/25 00:35:40;;;;;;;15.45;7.55;;;;;;;;;;4990747;28;20450;-88
2022/11/25 00:38:12;;;;;;;17.45;7.90;;;;;;;;;;5010383;28;20141;-88
2022/11/25 00:40:40;;;;;;;18.85;8.15;;;;;;;;;;4991446;28;20042;-88
2022/11/25 00:46:07;;;;;;;17.98;7.25;;;;;;;;;;4938246;29;20052;-89
2022/11/25 00:48:33;;;;;;;17.50;7.82;;;;;;;;;;4939063;29;20066;-88
2022/11/25 00:51:26;;;;;;;16.73;8.48;;;;;;;;;;4935528;29;20047;-89
2022/11/25 00:53:54;;;;;;;18.48;7.28;;;;;;;;;;4940549;29;20055;-88
2022/11/25 00:56:50;;;;;;;16.67;7.57;;;;;;;;;;4938891;29;20067;-89
2022/11/25 00:59:24;;;;;;;17.05;7.50;;;;;;;;;;4941324;29;20051;-89
2022/11/25 01:01:58;;;;;;;16.77;8.10;;;;;;;;;;4937168;29;20565;-89
2022/11/25 01:04:26;;;;;;;19.75;7.28;;;;;;;;;;4933346;29;20051;-89
2022/11/25 01:07:18;;;;;;;16.92;7.63;;;;;;;;;;4950375;29;20550;-88
2022/11/25 01:10:10;;;;;;;17.85;7.55;;;;;;;;;;4937219;29;20043;-89
2022/11/25 01:13:02;;;;;;;18.42;7.57;;;;;;;;;;4934508;29;20058;-88
2022/11/25 01:15:36;;;;;;;20.38;8.30;;;;;;;;;;4934051;29;20438;-89
2022/11/25 01:18:29;;;;;;;18.83;7.50;;;;;;;;;;4943100;28;20040;-88
2022/11/25 01:21:15;;;;;;;23.27;8.25;;;;;;;;;;4939694;29;20060;-88
2022/11/25 01:23:47;;;;;;;23.05;8.18;;;;;;;;;;5001738;28;20125;-89
2022/11/25 01:26:18;;;;;;;17.83;8.30;;;;;;;;;;4989185;28;21578;-89
2022/11/25 01:29:16;;;;;;;18.42;8.30;;;;;;;;;;4980021;28;20058;-89
2022/11/25 01:31:55;;;;;;;18.42;7.97;;;;;;;;;;5008682;28;20060;-88
2022/11/25 01:34:30;;;;;;;21.35;8.00;;;;;;;;;;4992828;28;20399;-89
2022/11/25 01:37:01;;;;;;;22.42;8.40;;;;;;;;;;5021237;28;20502;-89
2022/11/25 01:39:55;;;;;;;17.38;7.15;;;;;;;;;;5010602;28;20060;-89
2022/11/25 01:42:29;;;;;;;22.67;8.23;;;;;;;;;;4982430;28;20096;-89
2022/11/25 01:45:30;;;;;;;17.52;7.90;;;;;;;;;;4993659;28;20049;-88
2022/11/25 01:48:04;;;;;;;18.35;7.18;;;;;;;;;;5024247;28;20049;-88
2022/11/25 01:50:33;;;;;;;21.95;8.85;;;;;;;;;;5009045;28;20052;-89
2022/11/25 01:53:07;;;;;;;21.73;8.05;;;;;;;;;;5008990;28;20041;-88
2022/11/25 01:56:02;;;;;;;20.40;8.27;;;;;;;;;;5024150;28;20049;-88
2022/11/25 02:01:26;;;;;;;23.05;8.73;;;;;;;;;;5009772;28;20049;-88
2022/11/25 02:03:57;;;;;;;22.17;8.93;;;;;;;;;;5002303;28;20407;-88
2022/11/25 02:06:29;;;;;;;26.52;9.23;;;;;;;;;;5001583;28;20563;-89
2022/11/25 02:09:27;;;;;;;24.35;9.52;;;;;;;;;;5010292;28;20049;-88
2022/11/25 02:11:54;;;;;;;25.30;8.95;;;;;;;;;;4975074;28;20511;-88
2022/11/25 02:14:50;;;;;;;23.27;8.55;;;;;;;;;;5021797;28;20136;-88
2022/11/25 02:17:28;;;;;;;18.50;7.60;;;;;;;;;;4989946;28;20070;-89
2022/11/25 02:20:10;;;;;;;21.00;8.65;;;;;;;;;;4990432;28;20500;-88
2022/11/25 02:23:15;;;;;;;20.33;8.43;;;;;;;;;;4990132;28;20624;-88
2022/11/25 02:25:48;;;;;;;21.00;7.65;;;;;;;;;;4971620;28;20046;-89
2022/11/25 02:28:23;;;;;;;21.25;8.90;;;;;;;;;;4989226;28;20045;-89
2022/11/25 02:30:56;;;;;;;19.67;8.00;;;;;;;;;;4991877;28;20169;-88
2022/11/25 02:33:30;;;;;;;22.58;8.43;;;;;;;;;;5006772;28;20128;-88
2022/11/25 02:36:05;;;;;;;21.45;8.80;;;;;;;;;;4990206;28;20042;-89
2022/11/25 02:38:37;;;;;;;30.73;9.30;;;;;;;;;;4973935;28;20057;-88
2022/11/25 02:41:57;;;;;;;23.33;9.27;;;;;;;;;;4993081;28;20045;-89
2022/11/25 02:44:26;;;;;;;24.23;8.68;;;;;;;;;;5001484;28;20050;-88
2022/11/25 02:46:54;;;;;;;25.15;9.57;;;;;;;;;;5008977;28;20096;-89
2022/11/25 02:49:22;;;;;;;19.88;8.50;;;;;;;;;;4989921;28;20585;-89
2022/11/25 02:51:52;;;;;;;22.00;8.70;;;;;;;;;;5006759;28;20081;-89
2022/11/25 02:54:20;;;;;;;21.95;8.27;;;;;;;;;;4974788;28;20397;-89
2022/11/25 02:56:48;;;;;;;22.33;9.40;;;;;;;;;;4965530;28;20057;-89
2022/11/25 02:59:16;;;;;;;20.60;8.40;;;;;;;;;;4990457;28;20077;-88
2022/11/25 03:02:08;;;;;;;20.15;8.95;;;;;;;;;;5008428;28;20042;-89
2022/11/25 03:04:36;;;;;;;21.38;8.98;;;;;;;;;;4989892;28;20052;-89
2022/11/25 03:07:04;;;;;;;23.45;8.93;;;;;;;;;;4992037;28;20056;-89
2022/11/25 03:09:32;;;;;;;24.88;8.13;;;;;;;;;;5023600;28;20054;-89
2022/11/25 03:12:24;;;;;;;21.10;7.95;;;;;;;;;;4989705;28;20069;-89
2022/11/25 03:14:58;;;;;;;21.20;9.48;;;;;;;;;;5007953;28;20096;-89
2022/11/25 03:17:26;;;;;;;23.42;9.23;;;;;;;;;;4969409;28;20455;-89
2022/11/25 03:19:54;;;;;;;20.08;8.75;;;;;;;;;;4990160;28;20050;-89
2022/11/25 03:22:26;;;;;;;21.35;8.77;;;;;;;;;;5018556;28;20048;-89
2022/11/25 03:24:54;;;;;;;20.35;8.85;;;;;;;;;;5002436;28;20457;-89
2022/11/25 03:27:26;;;;;;;17.45;7.80;;;;;;;;;;5016525;28;20070;-89
2022/11/25 03:30:21;;;;;;;22.83;8.30;;;;;;;;;;4988557;28;20489;-89
2022/11/25 03:32:58;;;;;;;19.67;8.55;;;;;;;;;;4991203;28;20046;-89
2022/11/25 03:35:50;;;;;;;21.45;9.63;;;;;;;;;;4995102;28;20042;-89
2022/11/25 03:38:42;;;;;;;20.70;8.35;;;;;;;;;;5023398;28;20061;-89
2022/11/25 03:41:09;;;;;;;22.30;9.32;;;;;;;;;;4988342;28;20072;-89
2022/11/25 03:43:38;;;;;;;20.10;9.20;;;;;;;;;;4972857;28;20073;-89
2022/11/25 03:46:06;;;;;;;18.33;9.00;;;;;;;;;;4990113;28;20194;-89
2022/11/25 03:48:38;;;;;;;23.88;8.70;;;;;;;;;;5024851;28;20132;-89
2022/11/25 03:51:08;;;;;;;22.70;8.98;;;;;;;;;;4975167;28;20716;-89
2022/11/25 03:53:35;;;;;;;23.63;8.13;;;;;;;;;;4985168;28;20046;-89
2022/11/25 03:56:27;;;;;;;19.45;8.60;;;;;;;;;;4996983;28;20450;-89
2022/11/25 03:58:56;;;;;;;19.85;8.77;;;;;;;;;;4976538;28;20058;-89
2022/11/25 04:01:48;;;;;;;20.42;8.68;;;;;;;;;;5011732;28;20681;-89
2022/11/25 04:04:22;;;;;;;21.73;8.05;;;;;;;;;;4995234;28;20057;-90
2022/11/25 04:06:50;;;;;;;24.33;8.77;;;;;;;;;;5002542;28;20093;-89
2022/11/25 04:15:08;;;;;;;17.17;7.65;;;;;;;;;;4992787;28;20056;-89
2022/11/25 04:17:38;;;;;;;20.42;8.35;;;;;;;;;;5010675;28;20050;-88
2022/11/25 04:20:15;;;;;;;22.67;8.32;;;;;;;;;;4976418;28;20053;-89
2022/11/25 04:22:48;;;;;;;21.85;9.25;;;;;;;;;;4995277;28;20137;-90
2022/11/25 04:25:16;;;;;;;21.92;8.05;;;;;;;;;;5001621;28;20503;-89
2022/11/25 04:27:44;;;;;;;21.17;7.93;;;;;;;;;;4992766;28;20141;-89
2022/11/25 04:30:14;;;;;;;15.77;7.72;;;;;;;;;;4969057;28;20157;-89
2022/11/25 04:32:44;;;;;;;18.95;7.38;;;;;;;;;;4991609;28;20503;-89
2022/11/25 04:35:14;;;;;;;17.88;7.28;;;;;;;;;;5009450;28;20058;-89
2022/11/25 04:37:49;;;;;;;23.63;8.02;;;;;;;;;;4992885;28;20173;-88
2022/11/25 04:40:18;;;;;;;22.05;8.38;;;;;;;;;;4983227;28;20125;-89
2022/11/25 04:42:52;;;;;;;18.00;6.93;;;;;;;;;;4961901;28;20049;-89
2022/11/25 04:45:30;;;;;;;21.48;6.65;;;;;;;;;;4994004;28;20060;-89
2022/11/25 04:48:22;;;;;;;15.48;6.55;;;;;;;;;;4979419;28;20511;-88
2022/11/25 04:50:55;;;;;;;22.70;7.00;;;;;;;;;;5010567;28;20046;-89
2022/11/25 04:53:24;;;;;;;20.00;7.00;;;;;;;;;;4994796;28;20050;-88
2022/11/25 04:55:56;;;;;;;16.27;7.28;;;;;;;;;;4993057;28;20064;-89
2022/11/25 05:01:16;;;;;;;16.83;6.97;;;;;;;;;;4992679;28;20050;-89
2022/11/25 05:04:08;;;;;;;16.85;6.47;;;;;;;;;;4982510;28;20057;-89
2022/11/25 05:06:36;;;;;;;17.10;7.13;;;;;;;;;;4976477;28;20046;-89
2022/11/25 05:09:28;;;;;;;21.55;7.40;;;;;;;;;;5009629;28;20054;-89
2022/11/25 05:12:52;;;;;;;16.65;6.75;;;;;;;;;;4983427;28;20049;-89
2022/11/25 05:15:22;;;;;;;15.70;6.93;;;;;;;;;;4984863;28;20073;-89
2022/11/25 05:17:56;;;;;;;14.77;7.07;;;;;;;;;;4978180;28;20046;-88
2022/11/25 05:20:40;;;;;;;19.13;7.25;;;;;;;;;;4969294;28;20054;-89
2022/11/25 05:23:32;;;;;;;19.52;6.45;;;;;;;;;;4983419;28;20047;-89
2022/11/25 05:26:28;;;;;;;14.63;7.25;;;;;;;;;;4983331;28;20133;-90
2022/11/25 05:29:28;;;;;;;19.17;8.15;;;;;;;;;;4982284;28;20101;-90
2022/11/25 05:31:58;;;;;;;22.63;7.68;;;;;;;;;;4986268;28;20077;-89
2022/11/25 05:34:26;;;;;;;21.52;7.45;;;;;;;;;;4980395;28;20055;-89
2022/11/25 05:36:54;;;;;;;18.63;7.70;;;;;;;;;;4970593;28;20109;-90
2022/11/25 05:39:52;;;;;;;20.63;8.15;;;;;;;;;;4982161;28;20105;-90
2022/11/25 05:42:43;;;;;;;20.23;8.65;;;;;;;;;;4982034;28;20110;-90
2022/11/25 05:45:12;;;;;;;18.85;7.78;;;;;;;;;;4973029;28;20053;-90
2022/11/25 05:47:44;;;;;;;20.95;8.15;;;;;;;;;;4975542;28;20076;-90
2022/11/25 05:50:16;;;;;;;18.77;8.00;;;;;;;;;;4993667;28;20054;-90
2022/11/25 05:53:02;;;;;;;25.35;8.85;;;;;;;;;;5009510;28;20050;-90
2022/11/25 05:55:57;;;;;;;16.35;6.82;;;;;;;;;;5005409;28;20049;-89
2022/11/25 05:59:28;;;;;;;16.63;6.80;;;;;;;;;;4999751;28;20655;-89
2022/11/25 06:02:08;;;;;;;18.63;7.88;;;;;;;;;;5006507;28;20054;-89
2022/11/25 06:04:41;;;;;;;21.25;8.63;;;;;;;;;;4991677;28;20056;-90
2022/11/25 06:07:08;;;;;;;21.58;8.80;;;;;;;;;;5001241;28;20042;-89
2022/11/25 06:09:36;;;;;;;20.73;7.40;;;;;;;;;;4974368;28;20056;-89
2022/11/25 06:12:04;;;;;;;20.92;9.23;;;;;;;;;;4992375;28;20145;-89
2022/11/25 06:14:36;;;;;;;21.10;8.70;;;;;;;;;;4992019;28;20058;-89
2022/11/25 06:17:28;;;;;;;21.77;7.03;;;;;;;;;;5006258;28;20038;-88
2022/11/25 06:20:08;;;;;;;16.23;7.28;;;;;;;;;;4989718;28;20080;-88
2022/11/25 06:23:00;;;;;;;17.02;6.90;;;;;;;;;;5010217;28;20504;-89
2022/11/25 06:25:32;;;;;;;20.70;7.28;;;;;;;;;;5007924;28;20057;-88
2022/11/25 06:28:02;;;;;;;27.13;7.03;;;;;;;;;;4990877;28;20046;-89
2022/11/25 06:30:48;;;;;;;19.02;7.43;;;;;;;;;;5008726;28;20065;-89
2022/11/25 06:33:22;;;;;;;17.05;6.22;;;;;;;;;;4961295;28;20077;-88
2022/11/25 06:36:23;;;;;;;20.27;6.88;;;;;;;;;;4990217;28;20052;-89
2022/11/25 06:38:53;;;;;;;22.10;6.68;;;;;;;;;;5007526;28;20048;-89
2022/11/25 06:41:22;;;;;;;19.13;6.55;;;;;;;;;;5027408;28;20049;-90
2022/11/25 06:43:50;;;;;;;15.43;6.75;;;;;;;;;;4974265;28;20050;-90
2022/11/25 06:46:42;;;;;;;23.45;10.02;;;;;;;;;;4991388;28;20041;-89
2022/11/25 06:49:14;;;;;;;18.67;7.18;;;;;;;;;;5000367;28;20058;-89
2022/11/25 06:51:41;;;;;;;23.63;8.55;;;;;;;;;;5007169;28;20045;-89
2022/11/25 06:54:10;;;;;;;15.25;7.07;;;;;;;;;;5008073;28;20100;-89
2022/11/25 06:56:38;;;;;;;18.67;6.45;;;;;;;;;;5007593;28;20096;-89
2022/11/25 06:59:31;;;;;;;17.00;6.35;;;;;;;;;;5019540;28;20050;-89
2022/11/25 07:01:58;;;;;;;18.80;6.22;;;;;;;;;;4988558;28;20050;-89
2022/11/25 07:04:30;;;;;;;16.83;6.38;;;;;;;;;;5019325;28;20111;-89
2022/11/25 07:07:03;;;;;;;18.23;6.72;;;;;;;;;;5006963;28;20136;-89
2022/11/25 07:09:32;;;;;;;14.27;5.78;;;;;;;;;;5004939;28;20080;-89
2022/11/25 07:12:24;;;;;;;12.20;5.43;;;;;;;;;;5007595;28;20526;-90
2022/11/25 07:14:52;;;;;;;16.30;5.63;;;;;;;;;;5006471;28;20081;-89
2022/11/25 07:17:24;;;;;;;13.38;5.68;;;;;;;;;;4996612;28;20041;-89
2022/11/25 07:19:52;;;;;;;16.48;5.80;;;;;;;;;;5023562;28;20583;-90
2022/11/25 07:22:20;;;;;;;12.30;5.72;;;;;;;;;;4987615;28;20088;-89
2022/11/25 07:24:48;;;;;;;12.15;6.15;;;;;;;;;;5005656;28;20141;-89
2022/11/25 07:27:15;;;;;;;17.92;5.68;;;;;;;;;;5009044;28;20054;-89
2022/11/25 07:29:48;;;;;;;12.25;5.53;;;;;;;;;;4989462;28;20065;-89
2022/11/25 07:32:36;;;;;;;11.55;5.40;;;;;;;;;;5011396;28;20503;-89
2022/11/25 07:35:28;;;;;;;19.65;6.18;;;;;;;;;;5011998;28;20046;-89
2022/11/25 07:38:00;;;;;;;17.92;6.07;;;;;;;;;;4993797;28;20700;-89
2022/11/25 07:40:28;;;;;;;12.55;4.72;;;;;;;;;;5012407;28;20050;-89
2022/11/25 07:42:56;;;;;;;14.25;5.43;;;;;;;;;;5011914;28;20058;-89
2022/11/25 07:45:24;;;;;;;12.05;5.03;;;;;;;;;;4994907;28;20058;-89
2022/11/25 07:48:05;;;;;;;13.27;5.15;;;;;;;;;;4979541;28;20143;-89
2022/11/25 07:50:32;;;;;;;14.18;5.60;;;;;;;;;;4978651;28;20050;-89
2022/11/25 07:53:24;;;;;;;12.82;5.13;;;;;;;;;;5012675;28;20183;-89
2022/11/25 07:56:17;;;;;;;18.38;6.47;;;;;;;;;;5006610;28;20411;-89
2022/11/25 07:58:44;;;;;;;26.65;7.72;;;;;;;;;;4979098;28;20054;-89
2022/11/25 08:01:38;;;;;;;13.18;5.80;;;;;;;;;;4997915;28;20046;-89
2022/11/25 08:04:29;;;;;;;14.55;7.10;;;;;;;;;;5004131;28;20045;-89
2022/11/25 08:07:02;;;;;;;20.63;10.30;;;;;;;;;;5011973;28;20046;-88
2022/11/25 08:09:30;;;;;;;19.95;8.82;;;;;;;;;;4979468;28;20511;-89
2022/11/25 08:11:57;;;;;;;17.58;5.15;;;;;;;;;;4995268;28;20052;-89
2022/11/25 08:14:26;;;;;;;15.23;5.97;;;;;;;;;;5012560;28;20077;-89
2022/11/25 08:16:58;;;;;;;13.90;6.25;;;;;;;;;;5011417;28;20496;-90
2022/11/25 08:19:25;;;;;;;14.15;6.75;;;;;;;;;;4994218;28;20081;-89
2022/11/25 08:21:58;;;;;;;17.85;6.38;;;;;;;;;;5012505;28;20136;-89
2022/11/25 08:24:26;;;;;;;14.90;6.75;;;;;;;;;;5011002;28;20692;-89
2022/11/25 08:26:57;;;;;;;13.98;5.93;;;;;;;;;;5011708;28;20054;-89
2022/11/25 08:29:31;;;;;;;14.00;5.22;;;;;;;;;;4993951;28;20054;-89
2022/11/25 08:32:24;;;;;;;14.05;5.25;;;;;;;;;;5011128;28;20132;-90
2022/11/25 08:34:56;;;;;;;13.38;5.25;;;;;;;;;;5011870;28;20050;-90
2022/11/25 08:37:23;;;;;;;19.52;6.82;;;;;;;;;;4990723;28;20136;-88
2022/11/25 08:39:52;;;;;;;15.00;6.22;;;;;;;;;;5023442;28;20050;-88
2022/11/25 08:42:26;;;;;;;17.35;6.90;;;;;;;;;;5011929;28;20050;-89
2022/11/25 08:44:54;;;;;;;20.77;6.10;;;;;;;;;;5013830;28;20486;-89
2022/11/25 08:47:22;;;;;;;12.23;5.45;;;;;;;;;;5017790;28;20053;-89
2022/11/25 08:49:56;;;;;;;17.45;5.57;;;;;;;;;;5009163;28;20058;-89
2022/11/25 08:52:28;;;;;;;14.80;5.80;;;;;;;;;;5003039;28;20136;-89
2022/11/25 08:54:56;;;;;;;17.13;5.72;;;;;;;;;;5002601;28;20065;-89
2022/11/25 08:57:24;;;;;;;15.77;5.75;;;;;;;;;;4997425;28;20053;-89
2022/11/25 08:59:52;;;;;;;13.95;4.65;;;;;;;;;;5000807;28;20050;-89
2022/11/25 09:02:24;;;;;;;13.57;5.95;;;;;;;;;;5014543;28;20046;-89
2022/11/25 09:04:52;;;;;;;12.73;6.05;;;;;;;;;;5011001;28;20080;-89
2022/11/25 09:07:20;;;;;;;11.20;5.20;;;;;;;;;;4991341;28;20046;-89
2022/11/25 09:10:16;;;;;;;14.05;5.38;;;;;;;;;;5004758;28;20408;-89
2022/11/25 09:13:09;;;;;;;15.82;5.70;;;;;;;;;;5006017;28;20053;-89
2022/11/25 09:15:37;;;;;;;11.55;5.22;;;;;;;;;;5016274;28;20058;-89
2022/11/25 09:18:31;;;;;;;16.65;5.07;;;;;;;;;;5002546;28;20125;-89
2022/11/25 09:21:24;;;;;;;12.82;4.97;;;;;;;;;;5001752;28;20200;-89
2022/11/25 09:23:53;;;;;;;14.40;5.22;;;;;;;;;;5012335;28;20054;-88
2022/11/25 09:26:29;;;;;;;14.95;5.10;;;;;;;;;;5003479;28;20054;-88
2022/11/25 09:28:56;;;;;;;15.18;5.60;;;;;;;;;;5021925;28;20068;-89
2022/11/25 09:31:24;;;;;;;12.73;5.72;;;;;;;;;;5009478;28;20132;-88
2022/11/25 09:34:03;;;;;;;15.23;6.18;;;;;;;;;;4993386;28;20082;-88
2022/11/25 09:36:32;;;;;;;14.23;5.90;;;;;;;;;;5004127;28;20136;-89
2022/11/25 09:39:03;;;;;;;17.40;5.55;;;;;;;;;;4993448;28;20096;-88
2022/11/25 09:48:18;;;;;;;17.90;7.05;;;;;;;;;;5008701;28;20054;-88
2022/11/25 09:50:58;;;;;;;20.33;6.78;;;;;;;;;;5008579;28;20520;-88
2022/11/25 09:53:46;;;;;;;17.70;6.93;;;;;;;;;;5023977;28;20539;-88
2022/11/25 09:56:27;;;;;;;13.00;6.10;;;;;;;;;;5010532;28;20192;-87
2022/11/25 09:59:02;;;;;;;13.32;5.70;;;;;;;;;;5009746;28;20065;-88
2022/11/25 10:01:33;;;;;;;14.70;5.65;;;;;;;;;;4991668;28;20042;-87
2022/11/25 10:04:11;;;;;;;9.65;5.25;;;;;;;;;;5007551;28;20188;-88
2022/11/25 10:06:54;;;;;;;14.18;4.63;;;;;;;;;;5002234;28;20058;-88
2022/11/25 10:09:31;;;;;;;15.40;5.00;;;;;;;;;;5010031;28;20074;-88
2022/11/25 10:12:28;;;;;;;14.55;5.32;;;;;;;;;;4989209;28;20160;-88
2022/11/25 10:15:29;;;;;;;16.95;4.68;;;;;;;;;;5007118;28;20050;-88
2022/11/25 10:18:16;;;;;;;18.23;4.82;;;;;;;;;;5008864;28;20054;-88
2022/11/25 10:20:51;;;;;;;15.73;5.20;;;;;;;;;;5008561;28;20137;-88
2022/11/25 10:23:34;;;;;;;13.75;5.10;;;;;;;;;;5008449;28;20038;-88
2022/11/25 10:26:18;;;;;;;18.20;5.47;;;;;;;;;;5008124;28;20054;-88
2022/11/25 10:28:56;;;;;;;15.82;5.30;;;;;;;;;;5008722;28;20659;-88
2022/11/25 10:31:52;;;;;;;19.33;5.70;;;;;;;;;;5002729;28;20033;-88
2022/11/25 10:34:33;;;;;;;15.05;4.60;;;;;;;;;;4988411;28;20049;-88
2022/11/25 10:37:08;;;;;;;18.67;5.28;;;;;;;;;;4971755;28;20061;-87
2022/11/25 10:39:36;;;;;;;9.38;4.63;;;;;;;;;;5010015;28;20065;-88
2022/11/25 10:42:22;;;;;;;13.45;5.22;;;;;;;;;;5005795;28;20547;-88
2022/11/25 10:45:00;;;;;;;12.57;5.25;;;;;;;;;;5009341;28;20077;-88
2022/11/25 10:47:56;;;;;;;21.52;6.10;;;;;;;;;;5006797;28;20580;-88
2022/11/25 10:50:24;;;;;;;17.05;6.15;;;;;;;;;;5019781;28;20053;-86
2022/11/25 10:52:59;;;;;;;15.80;6.47;;;;;;;;;;5004788;28;20524;-86
2022/11/25 10:55:30;;;;;;;23.17;5.80;;;;;;;;;;4989602;28;20096;-86
2022/11/25 10:58:36;;;;;;;11.57;5.80;;;;;;;;;;5009243;28;20046;-87
2022/11/25 11:01:22;;;;;;;17.05;5.93;;;;;;;;;;4989639;28;20053;-87
2022/11/25 11:04:10;;;;;;;14.45;5.40;;;;;;;;;;4992415;28;20096;-86
2022/11/25 11:06:46;;;;;;;13.18;5.20;;;;;;;;;;5004665;28;20586;-89
2022/11/25 11:12:32;;;;;;;14.60;5.82;;;;;;;;;;5001964;28;20105;-90
2022/11/25 11:15:41;;;;;;;20.20;6.05;;;;;;;;;;4990806;28;20065;-90
2022/11/25 11:18:36;;;;;;;18.73;5.15;;;;;;;;;;4950420;28;20050;-89
2022/11/25 11:21:06;;;;;;;16.67;5.75;;;;;;;;;;4964375;28;20078;-90
2022/11/25 11:23:52;;;;;;;24.77;7.68;;;;;;;;;;4966439;28;20058;-89
2022/11/25 11:26:26;;;;;;;21.27;7.55;;;;;;;;;;4966689;28;20051;-90
2022/11/25 11:29:12;;;;;;;20.13;7.75;;;;;;;;;;4951472;28;20146;-90
2022/11/25 11:31:47;;;;;;;21.30;7.35;;;;;;;;;;4965787;28;20054;-89
2022/11/25 11:34:32;;;;;;;13.57;6.65;;;;;;;;;;4965679;28;20158;-89
2022/11/25 11:37:40;;;;;;;16.42;5.55;;;;;;;;;;4953985;28;20077;-89
2022/11/25 11:40:37;;;;;;;13.10;6.28;;;;;;;;;;4964851;28;20050;-89
2022/11/25 11:43:26;;;;;;;17.95;5.68;;;;;;;;;;4966847;28;20150;-89
2022/11/25 11:46:17;;;;;;;10.93;5.50;;;;;;;;;;4950011;28;20689;-90
2022/11/25 11:48:58;;;;;;;16.02;5.65;;;;;;;;;;4941758;28;20054;-89
2022/11/25 11:51:41;;;;;;;12.65;5.13;;;;;;;;;;4975550;28;20129;-89
2022/11/25 11:54:17;;;;;;;17.38;5.43;;;;;;;;;;4994975;28;20056;-87
2022/11/25 11:56:54;;;;;;;15.27;6.07;;;;;;;;;;4991758;28;20057;-89
2022/11/25 11:59:52;;;;;;;19.27;5.20;;;;;;;;;;4991494;28;20057;-89
2022/11/25 12:02:43;;;;;;;17.30;5.80;;;;;;;;;;4990128;28;20668;-89
2022/11/25 12:05:14;;;;;;;16.35;5.45;;;;;;;;;;4973916;28;20050;-89
2022/11/25 12:08:12;;;;;;;13.45;5.18;;;;;;;;;;5002780;28;20046;-89
2022/11/25 12:11:02;;;;;;;20.52;6.03;;;;;;;;;;5021070;28;20131;-89
2022/11/25 12:13:47;;;;;;;13.73;5.88;;;;;;;;;;5005579;28;20065;-89
2022/11/25 12:16:47;;;;;;;15.48;5.57;;;;;;;;;;4990027;28;20630;-89
2022/11/25 12:19:32;;;;;;;19.40;7.72;;;;;;;;;;4989165;28;20054;-89
2022/11/25 12:22:07;;;;;;;25.40;8.02;;;;;;;;;;5010646;28;20057;-89
2022/11/25 12:24:47;;;;;;;19.98;6.95;;;;;;;;;;4994528;28;20054;-89
2022/11/25 12:27:45;;;;;;;18.85;8.10;;;;;;;;;;4990622;28;20046;-89
2022/11/25 12:31:23;;;;;;;16.92;7.93;;;;;;;;;;4998330;28;20149;-89
2022/11/25 12:34:08;;;;;;;21.92;6.72;;;;;;;;;;4916151;29;20089;-89
2022/11/25 12:36:45;;;;;;;19.60;5.90;;;;;;;;;;4943174;28;20506;-89
2022/11/25 12:39:41;;;;;;;14.75;6.30;;;;;;;;;;4926929;28;20155;-88
2022/11/25 12:42:17;;;;;;;16.15;5.88;;;;;;;;;;4928158;28;20059;-88
2022/11/25 12:44:57;;;;;;;18.30;5.97;;;;;;;;;;4927894;29;20481;-88
2022/11/25 12:47:24;;;;;;;19.65;5.95;;;;;;;;;;4941487;28;20059;-90
2022/11/25 12:49:54;;;;;;;15.57;5.88;;;;;;;;;;4942250;28;20067;-90
2022/11/25 12:52:37;;;;;;;18.17;5.45;;;;;;;;;;4941705;28;20044;-90
2022/11/25 12:55:18;;;;;;;13.85;5.38;;;;;;;;;;4914722;29;20059;-89
2022/11/25 12:58:10;;;;;;;15.23;5.13;;;;;;;;;;4929223;28;20162;-89
2022/11/25 13:01:00;;;;;;;19.75;5.82;;;;;;;;;;4929890;28;20484;-90
2022/11/25 13:03:52;;;;;;;17.95;5.80;;;;;;;;;;4932554;29;20107;-90
2022/11/25 13:06:38;;;;;;;;;;;;;;;;;;4942898;28;20044;-89
2022/11/25 13:09:47;;;;;;;20.20;5.95;;;;;;;;;;4990673;28;19930;-89
2022/11/25 13:12:22;;;;;;;18.63;5.70;;;;;;;;;;5010035;28;20060;-90
2022/11/25 13:15:31;;;;;;;20.73;6.53;;;;;;;;;;5009893;28;20054;-89
2022/11/25 13:18:07;;;;;;;15.73;5.72;;;;;;;;;;4938596;29;20051;-88
2022/11/25 13:20:53;;;;;;;17.38;5.47;;;;;;;;;;4921256;29;20063;-89
2022/11/25 13:23:28;;;;;;;21.27;7.15;;;;;;;;;;4935985;29;20082;-88
2022/11/25 13:26:36;;;;;;;20.40;6.32;;;;;;;;;;4947468;28;20079;-89
2022/11/25 13:29:12;;;;;;;22.23;6.45;;;;;;;;;;4867145;29;20563;-89
2022/11/25 13:32:00;;;;;;;13.88;5.78;;;;;;;;;;4875514;29;20056;-89
2022/11/25 13:34:35;;;;;;;17.83;5.63;;;;;;;;;;4859461;29;20534;-88
2022/11/25 13:37:38;;;;;;;19.67;5.65;;;;;;;;;;4876185;29;20063;-88
2022/11/25 13:40:25;;;;;;;19.20;6.72;;;;;;;;;;4872016;29;20101;-88
2022/11/25 13:42:54;;;;;;;11.90;6.18;;;;;;;;;;4876012;29;20061;-88
2022/11/25 13:45:29;;;;;;;22.27;6.45;;;;;;;;;;4859897;29;20060;-88
2022/11/25 13:48:13;;;;;;;12.98;6.00;;;;;;;;;;4876912;29;20128;-89
2022/11/25 13:50:47;;;;;;;19.45;6.55;;;;;;;;;;4875760;29;20065;-90
2022/11/25 13:53:36;;;;;;;18.73;6.05;;;;;;;;;;4860301;29;20152;-91
2022/11/25 13:56:29;;;;;;;20.40;6.43;;;;;;;;;;4932309;29;20123;-90
2022/11/25 13:59:16;;;;;;;15.50;6.28;;;;;;;;;;4932521;29;20763;-90
2022/11/25 14:01:43;;;;;;;16.33;5.82;;;;;;;;;;4933381;29;20047;-90
2022/11/25 14:04:20;;;;;;;16.48;7.03;;;;;;;;;;4957040;28;20269;-90
2022/11/25 14:07:20;;;;;;;19.60;6.53;;;;;;;;;;5013426;28;20089;-90
2022/11/25 14:10:20;;;;;;;20.35;7.35;;;;;;;;;;5017718;28;20049;-90
2022/11/25 14:13:10;;;;;;;23.05;7.00;;;;;;;;;;5024051;28;20352;-91
2022/11/25 14:15:46;;;;;;;16.85;6.68;;;;;;;;;;5012474;28;20423;-90
2022/11/25 14:18:20;;;;;;;19.85;7.50;;;;;;;;;;5015339;28;20046;-90
2022/11/25 14:21:45;;;;;;;17.15;6.65;;;;;;;;;;4993467;28;20058;-89
2022/11/25 14:24:28;;;;;;;14.38;6.32;;;;;;;;;;5001982;28;20046;-90
2022/11/25 14:26:58;;;;;;;14.25;5.80;;;;;;;;;;5013327;28;20062;-89
2022/11/25 14:30:08;;;;;;;16.85;6.07;;;;;;;;;;4975925;28;20056;-89
2022/11/25 14:32:57;;;;;;;21.35;6.00;;;;;;;;;;5007191;28;20078;-89
2022/11/25 14:35:32;;;;;;;19.48;6.75;;;;;;;;;;5005417;28;20762;-89
2022/11/25 14:38:09;;;;;;;13.73;6.35;;;;;;;;;;5006537;28;20053;-89
2022/11/25 14:41:10;;;;;;;22.80;7.35;;;;;;;;;;5008222;28;20132;-89
2022/11/25 14:43:41;;;;;;;19.00;6.78;;;;;;;;;;5004568;28;20084;-89
2022/11/25 14:46:24;;;;;;;19.73;7.30;;;;;;;;;;5001563;28;20123;-89
2022/11/25 14:49:00;;;;;;;18.15;7.00;;;;;;;;;;4987977;28;20045;-89
2022/11/25 14:51:35;;;;;;;16.67;6.70;;;;;;;;;;5005781;28;20058;-89
2022/11/25 14:54:07;;;;;;;19.85;5.45;;;;;;;;;;5006180;28;20570;-89
2022/11/25 14:56:35;;;;;;;11.52;5.10;;;;;;;;;;4988402;28;20061;-89
2022/11/25 14:59:08;;;;;;;18.48;5.63;;;;;;;;;;5009291;28;20049;-89
2022/11/25 15:01:37;;;;;;;14.82;5.25;;;;;;;;;;4999890;28;20085;-89
2022/11/25 15:04:12;;;;;;;12.70;5.38;;;;;;;;;;4990295;28;20068;-89
2022/11/25 15:06:46;;;;;;;18.55;5.30;;;;;;;;;;5019508;28;20046;-89
2022/11/25 15:09:29;;;;;;;18.70;6.18;;;;;;;;;;5008453;28;20499;-91
2022/11/25 15:12:12;;;;;;;14.80;5.47;;;;;;;;;;4989042;28;20049;-88
2022/11/25 15:14:52;;;;;;;10.65;5.43;;;;;;;;;;5010776;28;20061;-89
2022/11/25 15:17:46;;;;;;;18.02;6.38;;;;;;;;;;5012007;28;20807;-89
2022/11/25 15:20:18;;;;;;;17.73;6.18;;;;;;;;;;4976587;28;20050;-89
2022/11/25 15:22:51;;;;;;;16.08;6.03;;;;;;;;;;5010135;28;20096;-89
2022/11/25 15:25:30;;;;;;;15.45;6.95;;;;;;;;;;5002036;28;20065;-90
2022/11/25 15:27:58;;;;;;;19.33;6.25;;;;;;;;;;4997047;28;20042;-89
2022/11/25 15:30:30;;;;;;;18.48;6.10;;;;;;;;;;4994820;28;20060;-90
2022/11/25 15:32:58;;;;;;;19.17;6.78;;;;;;;;;;5030155;28;20050;-90
2022/11/25 15:35:26;;;;;;;15.88;6.63;;;;;;;;;;4987280;28;20090;-90
2022/11/25 15:37:54;;;;;;;17.65;7.05;;;;;;;;;;5012734;28;20055;-88
2022/11/25 15:40:35;;;;;;;15.38;6.90;;;;;;;;;;4990479;28;20480;-89
2022/11/25 15:43:30;;;;;;;23.13;6.82;;;;;;;;;;4988631;28;20049;-89
2022/11/25 15:46:04;;;;;;;24.98;8.55;;;;;;;;;;5005944;28;20107;-89
2022/11/25 15:48:44;;;;;;;30.05;10.27;;;;;;;;;;5023849;28;20100;-89
2022/11/25 15:51:23;;;;;;;27.60;10.45;;;;;;;;;;5023791;28;20059;-88
2022/11/25 15:54:14;;;;;;;29.17;9.48;;;;;;;;;;5010894;28;20041;-88
2022/11/25 15:56:49;;;;;;;23.63;9.70;;;;;;;;;;4991646;28;20107;-86
2022/11/25 15:59:46;;;;;;;18.88;9.32;;;;;;;;;;4960736;28;20038;-87
2022/11/25 16:02:37;;;;;;;21.90;8.38;;;;;;;;;;4992216;28;20054;-87
2022/11/25 16:05:14;;;;;;;19.08;7.70;;;;;;;;;;5011020;28;20068;-87
2022/11/25 16:08:06;;;;;;;;;;;;;;;;;;;;;